Time;durP1;ratioP1;P1;durP2;ratioP2;P2;SDS_P1;SDS_P2;PMS_P1;PMS_P2;Temp;Humidity;BMP_temperature;BMP_pressure;BME280_temperature;BME280_humidity;BME280_pressure;Samples;Min_cycle;Max_cycle;Signal;HPM_P1;HPM_P2
2023/08/01 00:01:31;;;;;;;6.68;2.83;;;;;;;;;;4975482;28;20449;-70
2023/08/01 00:03:56;;;;;;;7.10;2.75;;;;;;;;;;4975352;28;20081;-70
2023/08/01 00:06:22;;;;;;;6.35;3.17;;;;;;;;;;4974783;28;20106;-70
2023/08/01 00:08:48;;;;;;;6.63;2.85;;;;;;;;;;4974122;28;20132;-71
2023/08/01 00:11:14;;;;;;;4.60;2.22;;;;;;;;;;4975194;28;20166;-70
2023/08/01 00:13:40;;;;;;;4.63;2.75;;;;;;;;;;4975212;28;20038;-69
2023/08/01 00:16:05;;;;;;;5.50;3.08;;;;;;;;;;4975343;28;20539;-69
2023/08/01 00:18:31;;;;;;;9.07;3.45;;;;;;;;;;4975097;28;20019;-70
2023/08/01 00:20:56;;;;;;;5.05;3.22;;;;;;;;;;4974787;28;20042;-70
2023/08/01 00:23:22;;;;;;;6.05;3.00;;;;;;;;;;4975088;28;20480;-70
2023/08/01 00:25:51;;;;;;;11.73;3.03;;;;;;;;;;4975098;28;20034;-70
2023/08/01 00:28:17;;;;;;;5.23;3.10;;;;;;;;;;4975150;28;20014;-69
2023/08/01 00:30:43;;;;;;;7.53;3.42;;;;;;;;;;4974994;28;20476;-69
2023/08/01 00:33:08;;;;;;;5.45;2.90;;;;;;;;;;4974935;28;20133;-70
2023/08/01 00:35:33;;;;;;;6.72;3.38;;;;;;;;;;4974570;28;20022;-70
2023/08/01 00:37:59;;;;;;;5.80;2.97;;;;;;;;;;4974958;28;20033;-70
2023/08/01 00:40:30;;;;;;;5.32;2.80;;;;;;;;;;4974836;28;20468;-69
2023/08/01 00:42:56;;;;;;;7.47;3.28;;;;;;;;;;4974891;28;20035;-69
2023/08/01 00:45:24;;;;;;;7.78;3.45;;;;;;;;;;4974610;28;20030;-69
2023/08/01 00:47:51;;;;;;;6.05;2.80;;;;;;;;;;4974297;28;20058;-70
2023/08/01 00:50:17;;;;;;;6.63;3.15;;;;;;;;;;4974470;28;20037;-66
2023/08/01 00:52:42;;;;;;;8.85;3.58;;;;;;;;;;4974646;28;20031;-65
2023/08/01 00:55:08;;;;;;;7.20;3.20;;;;;;;;;;4974397;28;20104;-66
2023/08/01 00:57:34;;;;;;;5.32;3.20;;;;;;;;;;4974743;28;20054;-65
2023/08/01 00:59:59;;;;;;;6.80;3.17;;;;;;;;;;4974504;28;20042;-66
2023/08/01 01:02:25;;;;;;;6.60;3.00;;;;;;;;;;4974528;28;20376;-66
2023/08/01 01:04:50;;;;;;;6.43;3.30;;;;;;;;;;4974392;28;20046;-66
2023/08/01 01:07:17;;;;;;;7.07;3.45;;;;;;;;;;4973128;28;20035;-66
2023/08/01 01:09:42;;;;;;;19.08;3.42;;;;;;;;;;4974483;28;20038;-66
2023/08/01 01:12:08;;;;;;;6.50;3.78;;;;;;;;;;4974407;28;20041;-65
2023/08/01 01:14:33;;;;;;;9.13;3.67;;;;;;;;;;4974233;28;20031;-65
2023/08/01 01:16:59;;;;;;;5.85;3.42;;;;;;;;;;4974262;28;20034;-66
2023/08/01 01:19:25;;;;;;;8.43;3.65;;;;;;;;;;4974282;28;20019;-65
2023/08/01 01:21:51;;;;;;;7.65;4.07;;;;;;;;;;4973972;28;20053;-66
2023/08/01 01:24:18;;;;;;;9.70;4.38;;;;;;;;;;4973966;28;20035;-66
2023/08/01 01:26:44;;;;;;;7.60;4.22;;;;;;;;;;4974146;28;20384;-66
2023/08/01 01:29:11;;;;;;;8.27;4.57;;;;;;;;;;4974050;28;20096;-66
2023/08/01 01:31:37;;;;;;;8.23;4.00;;;;;;;;;;4973782;28;20396;-66
2023/08/01 01:34:03;;;;;;;8.32;4.15;;;;;;;;;;4974045;28;20384;-66
2023/08/01 01:36:29;;;;;;;5.85;3.55;;;;;;;;;;4974033;28;20038;-66
2023/08/01 01:38:54;;;;;;;8.20;4.22;;;;;;;;;;4973832;28;20022;-66
2023/08/01 01:41:20;;;;;;;8.52;4.15;;;;;;;;;;4974017;28;20022;-66
2023/08/01 01:43:45;;;;;;;6.57;3.95;;;;;;;;;;4973901;28;20499;-66
2023/08/01 01:46:11;;;;;;;6.15;3.67;;;;;;;;;;4973631;28;20030;-66
2023/08/01 01:48:36;;;;;;;12.68;4.32;;;;;;;;;;4973715;28;20042;-66
2023/08/01 01:51:01;;;;;;;6.97;4.07;;;;;;;;;;4973893;28;20152;-66
2023/08/01 01:53:27;;;;;;;10.35;4.07;;;;;;;;;;4972606;28;20110;-66
2023/08/01 01:55:53;;;;;;;8.35;3.75;;;;;;;;;;4973800;28;20038;-66
2023/08/01 01:58:18;;;;;;;7.45;4.30;;;;;;;;;;4973874;28;20041;-66
2023/08/01 02:00:43;;;;;;;8.43;3.85;;;;;;;;;;4973808;28;20031;-66
2023/08/01 02:03:10;;;;;;;6.95;4.40;;;;;;;;;;4973441;28;20022;-66
2023/08/01 02:05:36;;;;;;;9.73;4.43;;;;;;;;;;4973719;28;20042;-66
2023/08/01 02:08:02;;;;;;;5.13;3.28;;;;;;;;;;4973799;28;20018;-66
2023/08/01 02:10:27;;;;;;;7.97;3.88;;;;;;;;;;4973649;28;20034;-66
2023/08/01 02:12:53;;;;;;;9.15;4.38;;;;;;;;;;4973685;28;20027;-66
2023/08/01 02:15:18;;;;;;;9.25;4.25;;;;;;;;;;4973441;28;20023;-66
2023/08/01 02:17:43;;;;;;;7.45;4.13;;;;;;;;;;4973558;28;20023;-66
2023/08/01 02:20:09;;;;;;;6.72;4.00;;;;;;;;;;4973535;28;20385;-65
2023/08/01 02:22:34;;;;;;;9.13;4.50;;;;;;;;;;4973535;28;20481;-66
2023/08/01 02:25:00;;;;;;;10.50;4.35;;;;;;;;;;4973557;28;20106;-66
2023/08/01 02:27:25;;;;;;;9.57;5.00;;;;;;;;;;4973517;28;20026;-66
2023/08/01 02:29:51;;;;;;;7.28;4.57;;;;;;;;;;4972176;28;20600;-67
2023/08/01 02:32:17;;;;;;;10.30;4.70;;;;;;;;;;4974161;28;20023;-67
2023/08/01 02:34:42;;;;;;;6.93;4.50;;;;;;;;;;4977039;28;20034;-65
2023/08/01 02:37:08;;;;;;;8.55;4.00;;;;;;;;;;4977106;28;20477;-66
2023/08/01 02:39:34;;;;;;;7.50;4.35;;;;;;;;;;4977028;28;20110;-65
2023/08/01 02:42:00;;;;;;;10.18;5.10;;;;;;;;;;4977091;28;20082;-65
2023/08/01 02:44:26;;;;;;;8.52;4.50;;;;;;;;;;4976599;28;20473;-66
2023/08/01 02:46:51;;;;;;;11.77;4.88;;;;;;;;;;4976680;28;20413;-65
2023/08/01 02:49:16;;;;;;;15.25;5.03;;;;;;;;;;4976988;28;20031;-65
2023/08/01 02:51:42;;;;;;;7.07;3.90;;;;;;;;;;4976958;28;20126;-65
2023/08/01 02:54:07;;;;;;;8.48;4.65;;;;;;;;;;4976961;28;20031;-65
2023/08/01 02:56:33;;;;;;;12.52;5.32;;;;;;;;;;4976775;28;20109;-66
2023/08/01 02:58:58;;;;;;;11.02;5.55;;;;;;;;;;4976477;28;20027;-66
2023/08/01 03:01:24;;;;;;;7.53;5.18;;;;;;;;;;4976814;28;20023;-65
2023/08/01 03:03:49;;;;;;;6.80;3.88;;;;;;;;;;4976458;28;20053;-65
2023/08/01 03:06:15;;;;;;;8.45;5.25;;;;;;;;;;4976609;28;20030;-66
2023/08/01 03:08:40;;;;;;;10.40;5.38;;;;;;;;;;4976642;28;20034;-66
2023/08/01 03:11:06;;;;;;;10.27;4.70;;;;;;;;;;4976563;28;20026;-66
2023/08/01 03:13:31;;;;;;;16.85;5.05;;;;;;;;;;4976466;28;20023;-66
2023/08/01 03:15:57;;;;;;;9.25;4.82;;;;;;;;;;4976491;28;20101;-66
2023/08/01 03:18:22;;;;;;;10.38;5.15;;;;;;;;;;4976436;28;20027;-67
2023/08/01 03:20:47;;;;;;;12.43;5.05;;;;;;;;;;4976507;28;20089;-66
2023/08/01 03:23:13;;;;;;;11.25;5.18;;;;;;;;;;4975927;28;20034;-66
2023/08/01 03:25:38;;;;;;;12.63;4.88;;;;;;;;;;4975828;28;20365;-66
2023/08/01 03:28:04;;;;;;;10.18;4.63;;;;;;;;;;4975968;28;20041;-66
2023/08/01 03:30:32;;;;;;;7.68;4.25;;;;;;;;;;4976156;28;20102;-66
2023/08/01 03:32:57;;;;;;;11.80;5.05;;;;;;;;;;4976076;28;20027;-65
2023/08/01 03:35:23;;;;;;;16.20;5.07;;;;;;;;;;4976079;28;20492;-66
2023/08/01 03:37:49;;;;;;;7.28;4.40;;;;;;;;;;4975959;28;20480;-66
2023/08/01 03:40:15;;;;;;;10.70;5.00;;;;;;;;;;4974855;28;20073;-66
2023/08/01 03:42:40;;;;;;;6.57;4.60;;;;;;;;;;4965310;28;20022;-65
2023/08/01 03:45:07;;;;;;;9.07;4.57;;;;;;;;;;4965083;28;20023;-66
2023/08/01 03:47:32;;;;;;;7.03;4.40;;;;;;;;;;4968926;28;20082;-66
2023/08/01 03:49:58;;;;;;;9.32;4.63;;;;;;;;;;4974868;28;20053;-65
2023/08/01 03:52:23;;;;;;;6.85;4.30;;;;;;;;;;4974333;28;20019;-65
2023/08/01 03:54:48;;;;;;;7.32;5.03;;;;;;;;;;4974495;28;20110;-65
2023/08/01 03:57:14;;;;;;;7.18;4.50;;;;;;;;;;4973993;28;20031;-65
2023/08/01 03:59:40;;;;;;;9.32;4.57;;;;;;;;;;4965216;28;20165;-68
2023/08/01 04:02:05;;;;;;;7.10;4.00;;;;;;;;;;4964719;28;20023;-65
2023/08/01 04:04:31;;;;;;;7.47;3.60;;;;;;;;;;4963286;28;20031;-66
2023/08/01 04:06:57;;;;;;;5.75;4.15;;;;;;;;;;4965316;28;20456;-66
2023/08/01 04:09:22;;;;;;;6.95;4.30;;;;;;;;;;4964024;28;20102;-65
2023/08/01 04:11:48;;;;;;;7.50;4.13;;;;;;;;;;4974959;28;20070;-65
2023/08/01 04:14:13;;;;;;;5.50;4.03;;;;;;;;;;4975252;28;20102;-65
2023/08/01 04:16:39;;;;;;;10.10;4.38;;;;;;;;;;4975368;28;20077;-65
2023/08/01 04:19:05;;;;;;;6.47;4.53;;;;;;;;;;4975218;28;20050;-66
2023/08/01 04:21:30;;;;;;;7.97;3.22;;;;;;;;;;4975026;28;20174;-66
2023/08/01 04:23:55;;;;;;;8.30;4.00;;;;;;;;;;4974947;28;20130;-67
2023/08/01 04:26:21;;;;;;;8.13;4.10;;;;;;;;;;4974464;28;20027;-66
2023/08/01 04:28:47;;;;;;;8.50;4.38;;;;;;;;;;4975005;28;20037;-66
2023/08/01 04:31:12;;;;;;;9.32;4.18;;;;;;;;;;4974904;28;20023;-65
2023/08/01 04:33:38;;;;;;;9.57;4.82;;;;;;;;;;4974917;28;20039;-65
2023/08/01 04:36:03;;;;;;;10.77;5.20;;;;;;;;;;4974881;28;20058;-64
2023/08/01 04:38:29;;;;;;;7.93;4.30;;;;;;;;;;4974798;28;20094;-65
2023/08/01 04:40:54;;;;;;;11.35;4.88;;;;;;;;;;4974379;28;20114;-65
2023/08/01 04:43:20;;;;;;;6.97;4.80;;;;;;;;;;4974663;28;20062;-64
2023/08/01 04:45:45;;;;;;;9.85;4.57;;;;;;;;;;4974908;28;20074;-65
2023/08/01 04:48:11;;;;;;;9.75;4.75;;;;;;;;;;4974349;28;20051;-65
2023/08/01 04:50:36;;;;;;;6.47;4.22;;;;;;;;;;4974676;28;20080;-64
2023/08/01 04:53:01;;;;;;;5.88;4.30;;;;;;;;;;4974615;28;20081;-65
2023/08/01 04:55:27;;;;;;;7.55;4.45;;;;;;;;;;4973551;28;20027;-65
2023/08/01 04:57:53;;;;;;;5.97;4.55;;;;;;;;;;4974589;28;20100;-65
2023/08/01 05:00:18;;;;;;;9.88;4.35;;;;;;;;;;4974534;28;20465;-65
2023/08/01 05:02:44;;;;;;;6.15;4.68;;;;;;;;;;4974526;28;20050;-65
2023/08/01 05:05:09;;;;;;;8.27;4.30;;;;;;;;;;4973193;28;20556;-65
2023/08/01 05:07:34;;;;;;;7.53;4.22;;;;;;;;;;4974320;28;20026;-65
2023/08/01 05:10:00;;;;;;;4.82;3.55;;;;;;;;;;4974023;28;20031;-64
2023/08/01 05:12:25;;;;;;;9.98;4.07;;;;;;;;;;4974256;28;20023;-65
2023/08/01 05:14:51;;;;;;;8.02;4.30;;;;;;;;;;4974266;28;20039;-65
2023/08/01 05:17:16;;;;;;;4.68;3.42;;;;;;;;;;4974292;28;20034;-65
2023/08/01 05:19:42;;;;;;;5.28;3.50;;;;;;;;;;4974164;28;20046;-65
2023/08/01 05:22:07;;;;;;;6.78;4.18;;;;;;;;;;4974178;28;20027;-65
2023/08/01 05:24:32;;;;;;;6.78;4.22;;;;;;;;;;4973392;28;20035;-66
2023/08/01 05:26:58;;;;;;;8.13;3.95;;;;;;;;;;4974322;28;20045;-65
2023/08/01 05:29:23;;;;;;;6.53;4.57;;;;;;;;;;4974172;28;20492;-65
2023/08/01 05:31:49;;;;;;;6.18;3.75;;;;;;;;;;4974167;28;20033;-65
2023/08/01 05:34:14;;;;;;;7.78;4.28;;;;;;;;;;4974056;28;20092;-65
2023/08/01 05:36:40;;;;;;;7.10;4.32;;;;;;;;;;4974059;28;20022;-65
2023/08/01 05:39:05;;;;;;;6.88;3.97;;;;;;;;;;4973726;28;20023;-64
2023/08/01 05:41:30;;;;;;;6.82;4.03;;;;;;;;;;4972648;28;20029;-65
2023/08/01 05:43:59;;;;;;;8.50;4.65;;;;;;;;;;4972656;28;20469;-64
2023/08/01 05:46:24;;;;;;;5.10;3.78;;;;;;;;;;4973794;28;20030;-65
2023/08/01 05:48:50;;;;;;;6.28;3.97;;;;;;;;;;4973693;28;20058;-64
2023/08/01 05:51:15;;;;;;;8.50;4.20;;;;;;;;;;4973616;28;20054;-64
2023/08/01 05:53:41;;;;;;;7.72;4.25;;;;;;;;;;4973701;28;20106;-64
2023/08/01 05:56:06;;;;;;;6.50;4.13;;;;;;;;;;4973921;28;20031;-64
2023/08/01 05:58:31;;;;;;;7.15;4.35;;;;;;;;;;4973905;28;20023;-64
2023/08/01 06:00:57;;;;;;;7.60;4.53;;;;;;;;;;4973746;28;20030;-64
2023/08/01 06:03:22;;;;;;;9.43;4.50;;;;;;;;;;4973660;28;20033;-64
2023/08/01 06:05:49;;;;;;;7.85;4.25;;;;;;;;;;4973857;28;20117;-64
2023/08/01 06:08:15;;;;;;;6.88;4.20;;;;;;;;;;4975884;28;20049;-64
2023/08/01 06:10:41;;;;;;;7.22;4.32;;;;;;;;;;4977728;28;20515;-64
2023/08/01 06:13:07;;;;;;;6.53;4.28;;;;;;;;;;4977395;28;20164;-64
2023/08/01 06:15:32;;;;;;;7.70;3.83;;;;;;;;;;4977470;28;20027;-64
2023/08/01 06:17:58;;;;;;;7.20;4.28;;;;;;;;;;4977458;28;20027;-64
2023/08/01 06:20:23;;;;;;;4.85;3.45;;;;;;;;;;4977316;28;20038;-64
2023/08/01 06:22:49;;;;;;;6.65;3.70;;;;;;;;;;4977215;28;20173;-64
2023/08/01 06:25:14;;;;;;;9.25;4.20;;;;;;;;;;4977244;28;20031;-65
2023/08/01 06:27:40;;;;;;;6.22;4.20;;;;;;;;;;4977147;28;20023;-64
2023/08/01 06:30:06;;;;;;;10.38;4.30;;;;;;;;;;4977319;28;20105;-64
2023/08/01 06:32:31;;;;;;;6.82;4.00;;;;;;;;;;4977202;28;20448;-65
2023/08/01 06:34:57;;;;;;;9.35;4.18;;;;;;;;;;4977051;28;20113;-65
2023/08/01 06:37:22;;;;;;;5.97;4.28;;;;;;;;;;4977043;28;20033;-65
2023/08/01 06:39:47;;;;;;;5.43;4.10;;;;;;;;;;4975737;28;20033;-64
2023/08/01 06:42:13;;;;;;;7.30;4.55;;;;;;;;;;4963993;28;20065;-64
2023/08/01 06:44:40;;;;;;;8.15;4.50;;;;;;;;;;4976392;28;20035;-64
2023/08/01 06:47:05;;;;;;;6.75;3.80;;;;;;;;;;4976062;28;21381;-64
2023/08/01 06:49:31;;;;;;;11.07;3.90;;;;;;;;;;4976582;28;20030;-64
2023/08/01 06:51:56;;;;;;;7.53;4.25;;;;;;;;;;4975079;28;20469;-64
2023/08/01 06:54:21;;;;;;;5.95;3.90;;;;;;;;;;4964651;28;20042;-65
2023/08/01 06:56:47;;;;;;;6.95;3.83;;;;;;;;;;4972959;28;20023;-63
2023/08/01 06:59:16;;;;;;;6.55;4.38;;;;;;;;;;4975115;28;20023;-64
2023/08/01 07:01:43;;;;;;;9.48;4.90;;;;;;;;;;4964394;28;20027;-64
2023/08/01 07:04:13;;;;;;;6.75;3.90;;;;;;;;;;4965233;28;20035;-65
2023/08/01 07:06:39;;;;;;;8.80;3.90;;;;;;;;;;4965997;28;20076;-65
2023/08/01 07:09:04;;;;;;;6.25;3.67;;;;;;;;;;4956850;29;20442;-64
2023/08/01 07:11:30;;;;;;;7.43;3.97;;;;;;;;;;4956915;29;20205;-64
2023/08/01 07:13:55;;;;;;;9.90;3.92;;;;;;;;;;4957806;28;20031;-63
2023/08/01 07:16:21;;;;;;;6.30;3.75;;;;;;;;;;4976005;28;20065;-63
2023/08/01 07:18:48;;;;;;;7.30;3.80;;;;;;;;;;4975751;28;20019;-64
2023/08/01 07:21:14;;;;;;;7.60;3.83;;;;;;;;;;4975746;28;20033;-64
2023/08/01 07:23:40;;;;;;;6.28;3.88;;;;;;;;;;4975874;28;20046;-65
2023/08/01 07:26:05;;;;;;;8.65;3.90;;;;;;;;;;4975948;28;20078;-64
2023/08/01 07:28:31;;;;;;;8.18;3.92;;;;;;;;;;4975879;28;20039;-64
2023/08/01 07:31:01;;;;;;;4.95;3.50;;;;;;;;;;4975915;28;20042;-65
2023/08/01 07:33:26;;;;;;;;;;;;;;;;;;4976224;28;20134;-65
2023/08/01 07:35:52;;;;;;;8.40;4.07;;;;;;;;;;4975490;28;19914;-64
2023/08/01 07:38:18;;;;;;;7.78;4.57;;;;;;;;;;4975668;28;20065;-64
2023/08/01 07:40:43;;;;;;;6.78;3.78;;;;;;;;;;4975665;28;20106;-64
2023/08/01 07:43:08;;;;;;;6.15;3.22;;;;;;;;;;4975634;28;20038;-65
2023/08/01 07:45:36;;;;;;;6.90;3.00;;;;;;;;;;4975304;28;20026;-65
2023/08/01 07:48:02;;;;;;;5.55;3.25;;;;;;;;;;4973814;28;20132;-65
2023/08/01 07:50:27;;;;;;;5.60;3.28;;;;;;;;;;4975244;28;20026;-65
2023/08/01 07:52:53;;;;;;;9.50;3.40;;;;;;;;;;4975545;28;20464;-65
2023/08/01 07:55:20;;;;;;;5.28;2.95;;;;;;;;;;4975370;28;20030;-65
2023/08/01 07:57:46;;;;;;;4.82;3.17;;;;;;;;;;4975320;28;20047;-67
2023/08/01 08:00:12;;;;;;;7.47;3.20;;;;;;;;;;4975377;28;20032;-65
2023/08/01 08:02:37;;;;;;;7.45;3.15;;;;;;;;;;4975231;28;20022;-64
2023/08/01 08:05:03;;;;;;;5.30;3.30;;;;;;;;;;4975037;28;20027;-65
2023/08/01 08:07:28;;;;;;;7.22;3.50;;;;;;;;;;4975241;28;20038;-65
2023/08/01 08:09:55;;;;;;;4.03;2.78;;;;;;;;;;4975164;28;20042;-65
2023/08/01 08:12:21;;;;;;;6.97;3.13;;;;;;;;;;4975111;28;20500;-65
2023/08/01 08:14:47;;;;;;;5.70;2.70;;;;;;;;;;4975130;28;20030;-65
2023/08/01 08:17:13;;;;;;;5.25;2.80;;;;;;;;;;4975016;28;20057;-65
2023/08/01 08:19:38;;;;;;;5.15;3.20;;;;;;;;;;4974801;28;20031;-65
2023/08/01 08:22:04;;;;;;;4.03;2.50;;;;;;;;;;4974143;28;20500;-65
2023/08/01 08:24:30;;;;;;;6.10;2.67;;;;;;;;;;4974490;28;20031;-65
2023/08/01 08:26:55;;;;;;;4.57;2.88;;;;;;;;;;4974666;28;20046;-65
2023/08/01 08:29:21;;;;;;;4.93;2.85;;;;;;;;;;4974792;28;20085;-65
2023/08/01 08:31:47;;;;;;;5.63;2.78;;;;;;;;;;4974273;28;20074;-65
2023/08/01 08:34:12;;;;;;;7.32;2.95;;;;;;;;;;4974391;28;20033;-64
2023/08/01 08:36:37;;;;;;;4.20;2.58;;;;;;;;;;4974702;28;20027;-65
2023/08/01 08:39:03;;;;;;;3.55;2.40;;;;;;;;;;4974538;28;20023;-64
2023/08/01 08:41:35;;;;;;;6.55;2.50;;;;;;;;;;4974837;28;20515;-65
2023/08/01 08:44:03;;;;;;;4.55;2.42;;;;;;;;;;4974243;28;20066;-66
2023/08/01 08:46:29;;;;;;;5.20;2.85;;;;;;;;;;4974176;28;20109;-65
2023/08/01 08:48:58;;;;;;;5.20;2.78;;;;;;;;;;4974136;28;20035;-66
2023/08/01 08:51:28;;;;;;;7.43;2.53;;;;;;;;;;4974507;28;20034;-66
2023/08/01 08:53:54;;;;;;;8.02;2.97;;;;;;;;;;4974332;28;20049;-66
2023/08/01 08:56:20;;;;;;;7.05;3.10;;;;;;;;;;4974221;28;20050;-65
2023/08/01 08:58:47;;;;;;;4.82;2.78;;;;;;;;;;4974467;28;20587;-65
2023/08/01 09:01:13;;;;;;;6.80;2.97;;;;;;;;;;4974029;28;20483;-65
2023/08/01 09:03:38;;;;;;;5.82;3.00;;;;;;;;;;4974156;28;20476;-65
2023/08/01 09:06:09;;;;;;;5.78;2.90;;;;;;;;;;4973372;28;20034;-65
2023/08/01 09:08:36;;;;;;;4.03;3.03;;;;;;;;;;4972593;28;20468;-65
2023/08/01 09:11:03;;;;;;;5.97;2.78;;;;;;;;;;4974094;28;20059;-64
2023/08/01 09:13:28;;;;;;;6.15;3.25;;;;;;;;;;4974384;28;20377;-65
2023/08/01 09:15:56;;;;;;;5.30;2.90;;;;;;;;;;4973630;28;20081;-64
2023/08/01 09:18:21;;;;;;;7.13;2.70;;;;;;;;;;4973904;28;20026;-65
2023/08/01 09:20:48;;;;;;;5.13;2.70;;;;;;;;;;4973952;28;20085;-65
2023/08/01 09:23:15;;;;;;;4.47;2.88;;;;;;;;;;4973668;28;20058;-64
2023/08/01 09:25:41;;;;;;;9.18;3.15;;;;;;;;;;4973868;28;20034;-64
2023/08/01 09:28:23;;;;;;;4.95;3.30;;;;;;;;;;4973805;28;20022;-64
2023/08/01 09:30:51;;;;;;;6.18;3.38;;;;;;;;;;4973695;28;20033;-64
2023/08/01 09:33:17;;;;;;;7.07;3.03;;;;;;;;;;4973911;28;20532;-64
2023/08/01 09:35:44;;;;;;;4.30;3.10;;;;;;;;;;4973818;28;20106;-65
2023/08/01 09:38:11;;;;;;;5.97;3.38;;;;;;;;;;4973667;28;20023;-64
2023/08/01 09:40:38;;;;;;;4.80;3.50;;;;;;;;;;4973569;28;20027;-65
2023/08/01 09:43:03;;;;;;;5.00;3.10;;;;;;;;;;4973429;28;20027;-65
2023/08/01 09:45:29;;;;;;;5.68;3.35;;;;;;;;;;4973359;28;20049;-64
2023/08/01 09:47:55;;;;;;;7.20;3.35;;;;;;;;;;4973053;28;20043;-65
2023/08/01 09:50:22;;;;;;;6.05;3.70;;;;;;;;;;4954210;28;20086;-64
2023/08/01 09:52:53;;;;;;;7.45;4.22;;;;;;;;;;4965661;28;20050;-64
2023/08/01 09:55:33;;;;;;;5.90;4.28;;;;;;;;;;4973807;28;20026;-64
2023/08/01 09:57:59;;;;;;;9.10;4.27;;;;;;;;;;4973635;28;20022;-64
2023/08/01 10:00:29;;;;;;;7.53;3.75;;;;;;;;;;4973262;28;20083;-65
2023/08/01 10:03:00;;;;;;;7.10;3.58;;;;;;;;;;4972162;28;20058;-65
2023/08/01 10:05:26;;;;;;;;;;;;;;;;;;4974003;28;20035;-65
2023/08/01 10:07:54;;;;;;;5.03;3.50;;;;;;;;;;4973379;28;20005;-64
2023/08/01 10:10:21;;;;;;;6.18;3.95;;;;;;;;;;4973243;28;20027;-65
2023/08/01 10:12:48;;;;;;;5.40;3.10;;;;;;;;;;4973458;28;20026;-65
2023/08/01 10:15:15;;;;;;;5.55;2.90;;;;;;;;;;4973251;28;20034;-65
2023/08/01 10:17:41;;;;;;;5.68;3.05;;;;;;;;;;4973472;28;20026;-65
2023/08/01 10:20:07;;;;;;;5.43;3.65;;;;;;;;;;4973349;28;20376;-65
2023/08/01 10:22:34;;;;;;;5.03;3.50;;;;;;;;;;4973134;28;20046;-65
2023/08/01 10:25:00;;;;;;;5.18;3.45;;;;;;;;;;4973343;28;20023;-63
2023/08/01 10:27:25;;;;;;;5.18;3.28;;;;;;;;;;4973152;28;20387;-65
2023/08/01 10:30:02;;;;;;;5.40;3.55;;;;;;;;;;4972992;28;20110;-64
2023/08/01 10:32:39;;;;;;;5.72;3.13;;;;;;;;;;4973247;28;20053;-66
2023/08/01 10:35:06;;;;;;;6.88;3.15;;;;;;;;;;4973345;28;20101;-64
2023/08/01 10:37:42;;;;;;;4.93;2.90;;;;;;;;;;4973234;28;20437;-63
2023/08/01 10:40:08;;;;;;;5.78;3.10;;;;;;;;;;4973114;28;20054;-63
2023/08/01 10:42:38;;;;;;;4.97;3.13;;;;;;;;;;4972759;28;20031;-63
2023/08/01 10:45:04;;;;;;;5.35;3.05;;;;;;;;;;4972954;28;20499;-63
2023/08/01 10:47:31;;;;;;;4.03;2.90;;;;;;;;;;4972545;28;20078;-64
2023/08/01 10:49:57;;;;;;;5.00;2.50;;;;;;;;;;4972926;28;20147;-63
2023/08/01 10:52:27;;;;;;;6.72;2.60;;;;;;;;;;4972846;28;20043;-64
2023/08/01 10:54:59;;;;;;;;;;;;;;;;;;4976436;28;20084;-64
2023/08/01 10:57:26;;;;;;;6.35;2.90;;;;;;;;;;4976250;28;19913;-64
2023/08/01 10:59:51;;;;;;;4.65;2.88;;;;;;;;;;4976377;28;20165;-64
2023/08/01 11:02:22;;;;;;;10.68;3.10;;;;;;;;;;4976082;28;20105;-64
2023/08/01 11:05:00;;;;;;;5.60;2.80;;;;;;;;;;4976230;28;20038;-64
2023/08/01 11:07:26;;;;;;;4.13;2.00;;;;;;;;;;4976200;28;20095;-64
2023/08/01 11:10:21;;;;;;;3.15;2.20;;;;;;;;;;4976241;28;20031;-64
2023/08/01 11:12:47;;;;;;;3.10;2.05;;;;;;;;;;4971159;28;20047;-64
2023/08/01 11:15:14;;;;;;;10.43;3.17;;;;;;;;;;4976032;28;20026;-64
2023/08/01 11:17:46;;;;;;;4.72;3.03;;;;;;;;;;4975828;28;20469;-64
2023/08/01 11:20:12;;;;;;;6.15;2.72;;;;;;;;;;4975986;28;20023;-64
2023/08/01 11:22:49;;;;;;;4.47;2.58;;;;;;;;;;4975705;28;20027;-64
2023/08/01 11:25:15;;;;;;;5.72;2.75;;;;;;;;;;4976031;28;20444;-64
2023/08/01 11:27:41;;;;;;;8.23;3.80;;;;;;;;;;4975804;28;20054;-64
2023/08/01 11:30:07;;;;;;;6.53;3.70;;;;;;;;;;4976078;28;20034;-64
2023/08/01 11:32:37;;;;;;;6.53;2.85;;;;;;;;;;4975828;28;20025;-64
2023/08/01 11:35:02;;;;;;;;;;;;;;;;;;4976261;28;20059;-64
2023/08/01 11:37:30;;;;;;;4.55;2.67;;;;;;;;;;4975528;28;20390;-64
2023/08/01 11:39:56;;;;;;;8.90;3.28;;;;;;;;;;4975542;28;20031;-65
2023/08/01 11:42:22;;;;;;;8.27;3.20;;;;;;;;;;4975297;28;20392;-64
2023/08/01 11:44:47;;;;;;;6.93;2.83;;;;;;;;;;4975620;28;20170;-64
2023/08/01 11:47:14;;;;;;;4.68;2.00;;;;;;;;;;4975153;28;20047;-64
2023/08/01 11:49:44;;;;;;;4.10;2.33;;;;;;;;;;4975289;28;20117;-64
2023/08/01 11:52:09;;;;;;;6.38;2.60;;;;;;;;;;4975483;28;20027;-64
2023/08/01 11:54:44;;;;;;;2.70;1.50;;;;;;;;;;4975432;28;20053;-64
2023/08/01 11:57:10;;;;;;;4.07;1.98;;;;;;;;;;4975181;28;20081;-64
2023/08/01 11:59:49;;;;;;;4.13;1.75;;;;;;;;;;4975543;28;20027;-64
2023/08/01 12:02:25;;;;;;;5.18;1.92;;;;;;;;;;4975244;28;20081;-64
2023/08/01 12:04:52;;;;;;;7.82;1.58;;;;;;;;;;4974218;28;20026;-64
2023/08/01 12:07:17;;;;;;;5.75;1.75;;;;;;;;;;4975146;28;20097;-64
2023/08/01 12:09:44;;;;;;;10.57;2.42;;;;;;;;;;4975057;28;20023;-65
2023/08/01 12:12:10;;;;;;;8.18;2.28;;;;;;;;;;4975036;28;20039;-65
2023/08/01 12:14:42;;;;;;;3.58;1.65;;;;;;;;;;4975175;28;20038;-65
2023/08/01 12:17:07;;;;;;;4.45;1.70;;;;;;;;;;4975121;28;20047;-65
2023/08/01 12:19:33;;;;;;;3.15;2.33;;;;;;;;;;4974965;28;20062;-65
2023/08/01 12:21:59;;;;;;;3.88;1.60;;;;;;;;;;4974908;28;20023;-65
2023/08/01 12:24:25;;;;;;;5.97;1.40;;;;;;;;;;4974741;28;20057;-65
2023/08/01 12:26:50;;;;;;;4.22;1.85;;;;;;;;;;4975010;28;20031;-65
2023/08/01 12:29:16;;;;;;;4.78;1.27;;;;;;;;;;4974581;28;20027;-65
2023/08/01 12:31:41;;;;;;;5.60;1.58;;;;;;;;;;4974940;28;20023;-65
2023/08/01 12:34:07;;;;;;;3.05;1.00;;;;;;;;;;4974771;28;20109;-65
2023/08/01 12:36:32;;;;;;;3.35;1.23;;;;;;;;;;4974630;28;20033;-66
2023/08/01 12:38:57;;;;;;;3.75;1.30;;;;;;;;;;4974470;28;20057;-67
2023/08/01 12:41:23;;;;;;;3.88;1.45;;;;;;;;;;4974725;28;20031;-66
2023/08/01 12:43:48;;;;;;;2.30;1.10;;;;;;;;;;4974664;28;20038;-65
2023/08/01 12:46:14;;;;;;;2.28;1.00;;;;;;;;;;4974079;28;20038;-65
2023/08/01 12:48:39;;;;;;;2.65;1.20;;;;;;;;;;4974276;28;20039;-65
2023/08/01 12:51:05;;;;;;;2.33;0.70;;;;;;;;;;4974559;28;20045;-63
2023/08/01 12:53:30;;;;;;;1.63;0.70;;;;;;;;;;4974230;28;20019;-63
2023/08/01 12:55:56;;;;;;;1.80;0.93;;;;;;;;;;4974186;28;20031;-63
2023/08/01 12:58:21;;;;;;;1.27;0.60;;;;;;;;;;4974221;28;20045;-65
2023/08/01 13:00:46;;;;;;;2.67;0.93;;;;;;;;;;4974241;28;20093;-66
2023/08/01 13:03:12;;;;;;;3.05;0.68;;;;;;;;;;4974068;28;20114;-63
2023/08/01 13:05:39;;;;;;;1.15;0.70;;;;;;;;;;4974187;28;20118;-63
2023/08/01 13:08:05;;;;;;;2.70;0.90;;;;;;;;;;4973908;28;20159;-63
2023/08/01 13:10:32;;;;;;;1.88;0.80;;;;;;;;;;4974165;28;20407;-66
2023/08/01 13:12:58;;;;;;;2.05;0.80;;;;;;;;;;4973660;28;20041;-64
2023/08/01 13:15:23;;;;;;;1.05;0.80;;;;;;;;;;4974234;28;20110;-63
2023/08/01 13:17:49;;;;;;;2.17;1.05;;;;;;;;;;4973746;28;20058;-63
2023/08/01 13:20:15;;;;;;;7.97;1.30;;;;;;;;;;4973942;28;20027;-63
2023/08/01 13:22:41;;;;;;;2.22;1.02;;;;;;;;;;4973607;28;20101;-64
2023/08/01 13:25:07;;;;;;;3.05;1.38;;;;;;;;;;4973929;28;20504;-63
2023/08/01 13:27:34;;;;;;;2.80;1.10;;;;;;;;;;4973927;28;20380;-64
2023/08/01 13:30:00;;;;;;;4.18;1.20;;;;;;;;;;4974039;28;20031;-64
2023/08/01 13:32:25;;;;;;;2.63;1.05;;;;;;;;;;4973915;28;20542;-66
2023/08/01 13:34:50;;;;;;;2.60;1.40;;;;;;;;;;4973876;28;20031;-65
2023/08/01 13:37:16;;;;;;;3.92;1.33;;;;;;;;;;4973631;28;20045;-65
2023/08/01 13:39:41;;;;;;;4.47;1.55;;;;;;;;;;4973749;28;20027;-65
2023/08/01 13:42:07;;;;;;;4.15;1.77;;;;;;;;;;4973673;28;20086;-65
2023/08/01 13:44:33;;;;;;;4.10;1.60;;;;;;;;;;4973672;28;20026;-65
2023/08/01 13:46:58;;;;;;;4.22;1.63;;;;;;;;;;4972130;28;20031;-65
2023/08/01 13:49:24;;;;;;;4.10;1.58;;;;;;;;;;4973632;28;20023;-65
2023/08/01 13:51:49;;;;;;;4.13;1.50;;;;;;;;;;4973346;28;20031;-65
2023/08/01 13:54:16;;;;;;;3.38;2.17;;;;;;;;;;4973385;28;20047;-65
2023/08/01 13:56:42;;;;;;;3.00;1.63;;;;;;;;;;4973738;28;20473;-65
2023/08/01 13:59:08;;;;;;;3.47;1.58;;;;;;;;;;4973755;28;20035;-65
2023/08/01 14:01:35;;;;;;;4.72;1.75;;;;;;;;;;4973688;28;20027;-66
2023/08/01 14:04:00;;;;;;;4.88;1.98;;;;;;;;;;4973673;28;20114;-65
2023/08/01 14:06:26;;;;;;;3.33;1.80;;;;;;;;;;4973407;28;20066;-65
2023/08/01 14:08:51;;;;;;;3.33;2.33;;;;;;;;;;4973713;28;20521;-65
2023/08/01 14:11:17;;;;;;;4.55;2.30;;;;;;;;;;4973722;28;20027;-65
2023/08/01 14:13:43;;;;;;;6.25;2.40;;;;;;;;;;4973545;28;20082;-65
2023/08/01 14:16:08;;;;;;;4.32;2.50;;;;;;;;;;4973434;28;20204;-65
2023/08/01 14:18:34;;;;;;;4.10;2.53;;;;;;;;;;4973473;28;20046;-65
2023/08/01 14:20:59;;;;;;;4.63;2.70;;;;;;;;;;4973296;28;20539;-66
2023/08/01 14:23:25;;;;;;;13.23;3.05;;;;;;;;;;4973240;28;20037;-65
2023/08/01 14:25:50;;;;;;;3.17;2.33;;;;;;;;;;4973438;28;20396;-65
2023/08/01 14:28:16;;;;;;;3.30;2.20;;;;;;;;;;4973966;28;20465;-65
2023/08/01 14:30:41;;;;;;;3.53;2.60;;;;;;;;;;4977188;28;20074;-65
2023/08/01 14:33:08;;;;;;;4.30;2.40;;;;;;;;;;4977112;28;20392;-66
2023/08/01 14:35:37;;;;;;;7.80;3.25;;;;;;;;;;4976522;28;20030;-65
2023/08/01 14:38:04;;;;;;;6.50;2.45;;;;;;;;;;4976988;28;20420;-65